sensor_id;sensor_type;location;lat;lon;timestamp;P1;durP1;ratioP1;P2;durP2;ratioP2
62696;SDS011;48761;42.680;23.312;2022-11-20T00:24:56;3.65;;;0.98;;
62696;SDS011;48761;42.680;23.312;2022-11-20T00:27:23;4.10;;;0.98;;
62696;SDS011;48761;42.680;23.312;2022-11-20T00:29:49;5.20;;;1.13;;
62696;SDS011;48761;42.680;23.312;2022-11-20T00:32:15;6.25;;;1.10;;
62696;SDS011;48761;42.680;23.312;2022-11-20T00:34:41;2.15;;;0.73;;
62696;SDS011;48761;42.680;23.312;2022-11-20T00:37:08;3.17;;;1.00;;
62696;SDS011;48761;42.680;23.312;2022-11-20T00:39:34;2.45;;;0.90;;
62696;SDS011;48761;42.680;23.312;2022-11-20T00:42:00;3.72;;;1.08;;
62696;SDS011;48761;42.680;23.312;2022-11-20T00:44:26;2.53;;;0.90;;
62696;SDS011;48761;42.680;23.312;2022-11-20T00:46:52;2.08;;;0.90;;
62696;SDS011;48761;42.680;23.312;2022-11-20T00:49:19;2.13;;;0.77;;
62696;SDS011;48761;42.680;23.312;2022-11-20T00:51:45;4.75;;;1.15;;
62696;SDS011;48761;42.680;23.312;2022-11-20T00:54:11;2.80;;;0.85;;
62696;SDS011;48761;42.680;23.312;2022-11-20T00:56:37;4.70;;;1.00;;
62696;SDS011;48761;42.680;23.312;2022-11-20T00:59:03;2.05;;;0.70;;
62696;SDS011;48761;42.680;23.312;2022-11-20T01:01:29;2.83;;;1.10;;
62696;SDS011;48761;42.680;23.312;2022-11-20T01:03:56;4.15;;;0.82;;
62696;SDS011;48761;42.680;23.312;2022-11-20T01:06:31;1.85;;;0.70;;
62696;SDS011;48761;42.680;23.312;2022-11-20T01:09:01;5.65;;;1.30;;
62696;SDS011;48761;42.680;23.312;2022-11-20T01:11:31;4.07;;;1.20;;
62696;SDS011;48761;42.680;23.312;2022-11-20T01:14:00;3.38;;;0.95;;
62696;SDS011;48761;42.680;23.312;2022-11-20T01:16:33;3.40;;;0.80;;
62696;SDS011;48761;42.680;23.312;2022-11-20T01:19:01;1.75;;;0.77;;
62696;SDS011;48761;42.680;23.312;2022-11-20T01:21:32;2.22;;;0.85;;
62696;SDS011;48761;42.680;23.312;2022-11-20T01:24:00;3.75;;;0.82;;
62696;SDS011;48761;42.680;23.312;2022-11-20T01:26:27;2.25;;;0.75;;
62696;SDS011;48761;42.680;23.312;2022-11-20T01:28:55;4.05;;;0.90;;
62696;SDS011;48761;42.680;23.312;2022-11-20T01:31:22;4.82;;;0.70;;
62696;SDS011;48761;42.680;23.312;2022-11-20T01:33:56;1.10;;;0.50;;
62696;SDS011;48761;42.680;23.312;2022-11-20T01:36:24;4.78;;;0.65;;
62696;SDS011;48761;42.680;23.312;2022-11-20T01:38:57;5.13;;;0.90;;
62696;SDS011;48761;42.680;23.312;2022-11-20T01:41:25;4.47;;;0.75;;
62696;SDS011;48761;42.680;23.312;2022-11-20T01:43:52;2.00;;;0.70;;
62696;SDS011;48761;42.680;23.312;2022-11-20T01:46:18;4.15;;;0.90;;
62696;SDS011;48761;42.680;23.312;2022-11-20T01:49:03;3.60;;;0.82;;
62696;SDS011;48761;42.680;23.312;2022-11-20T01:55:01;3.20;;;0.80;;
62696;SDS011;48761;42.680;23.312;2022-11-20T01:57:32;2.80;;;1.20;;
62696;SDS011;48761;42.680;23.312;2022-11-20T02:00:00;2.38;;;0.75;;
62696;SDS011;48761;42.680;23.312;2022-11-20T02:02:30;2.70;;;0.57;;
62696;SDS011;48761;42.680;23.312;2022-11-20T02:04:58;5.57;;;0.73;;
62696;SDS011;48761;42.680;23.312;2022-11-20T02:07:30;1.90;;;0.82;;
62696;SDS011;48761;42.680;23.312;2022-11-20T02:09:56;2.05;;;0.63;;
62696;SDS011;48761;42.680;23.312;2022-11-20T02:12:22;2.78;;;0.80;;
62696;SDS011;48761;42.680;23.312;2022-11-20T02:14:48;4.20;;;0.70;;
62696;SDS011;48761;42.680;23.312;2022-11-20T02:17:14;3.60;;;0.70;;
62696;SDS011;48761;42.680;23.312;2022-11-20T02:19:40;1.75;;;0.65;;
62696;SDS011;48761;42.680;23.312;2022-11-20T02:22:27;2.13;;;0.80;;
62696;SDS011;48761;42.680;23.312;2022-11-20T02:24:56;4.85;;;0.80;;
62696;SDS011;48761;42.680;23.312;2022-11-20T02:27:25;2.78;;;0.68;;
62696;SDS011;48761;42.680;23.312;2022-11-20T02:29:53;4.32;;;0.90;;
62696;SDS011;48761;42.680;23.312;2022-11-20T02:32:26;1.35;;;0.60;;
62696;SDS011;48761;42.680;23.312;2022-11-20T02:34:54;2.90;;;0.70;;
62696;SDS011;48761;42.680;23.312;2022-11-20T02:37:21;3.10;;;0.80;;
62696;SDS011;48761;42.680;23.312;2022-11-20T02:39:47;2.67;;;0.68;;
62696;SDS011;48761;42.680;23.312;2022-11-20T02:42:15;3.30;;;0.77;;
62696;SDS011;48761;42.680;23.312;2022-11-20T02:44:41;1.48;;;0.50;;
62696;SDS011;48761;42.680;23.312;2022-11-20T02:47:07;1.25;;;0.65;;
62696;SDS011;48761;42.680;23.312;2022-11-20T02:49:33;4.20;;;0.90;;
62696;SDS011;48761;42.680;23.312;2022-11-20T02:51:59;2.40;;;0.80;;
62696;SDS011;48761;42.680;23.312;2022-11-20T02:54:26;2.67;;;0.77;;
62696;SDS011;48761;42.680;23.312;2022-11-20T02:56:52;1.73;;;0.57;;
62696;SDS011;48761;42.680;23.312;2022-11-20T02:59:18;1.65;;;0.85;;
62696;SDS011;48761;42.680;23.312;2022-11-20T03:01:44;3.45;;;1.10;;
62696;SDS011;48761;42.680;23.312;2022-11-20T03:04:10;5.45;;;0.70;;
62696;SDS011;48761;42.680;23.312;2022-11-20T03:06:36;4.65;;;1.00;;
62696;SDS011;48761;42.680;23.312;2022-11-20T03:09:02;5.40;;;1.02;;
62696;SDS011;48761;42.680;23.312;2022-11-20T03:11:28;3.38;;;1.15;;
62696;SDS011;48761;42.680;23.312;2022-11-20T03:13:54;5.70;;;1.30;;
62696;SDS011;48761;42.680;23.312;2022-11-20T03:16:21;5.53;;;1.30;;
62696;SDS011;48761;42.680;23.312;2022-11-20T03:18:48;3.72;;;1.13;;
62696;SDS011;48761;42.680;23.312;2022-11-20T03:21:15;3.97;;;1.00;;
62696;SDS011;48761;42.680;23.312;2022-11-20T03:23:41;4.63;;;1.42;;
62696;SDS011;48761;42.680;23.312;2022-11-20T03:26:17;3.63;;;1.10;;
62696;SDS011;48761;42.680;23.312;2022-11-20T03:28:47;5.15;;;1.20;;
62696;SDS011;48761;42.680;23.312;2022-11-20T03:31:15;2.65;;;1.00;;
62696;SDS011;48761;42.680;23.312;2022-11-20T03:33:42;2.55;;;1.30;;
62696;SDS011;48761;42.680;23.312;2022-11-20T03:36:09;2.75;;;1.00;;
62696;SDS011;48761;42.680;23.312;2022-11-20T03:38:37;3.40;;;1.00;;
62696;SDS011;48761;42.680;23.312;2022-11-20T03:41:05;4.47;;;1.00;;
62696;SDS011;48761;42.680;23.312;2022-11-20T03:43:33;4.00;;;0.95;;
62696;SDS011;48761;42.680;23.312;2022-11-20T03:45:59;1.85;;;0.60;;
62696;SDS011;48761;42.680;23.312;2022-11-20T03:48:25;3.25;;;1.08;;
62696;SDS011;48761;42.680;23.312;2022-11-20T03:50:52;2.47;;;1.00;;
62696;SDS011;48761;42.680;23.312;2022-11-20T03:53:19;4.40;;;1.10;;
62696;SDS011;48761;42.680;23.312;2022-11-20T03:55:50;3.13;;;1.02;;
62696;SDS011;48761;42.680;23.312;2022-11-20T03:58:16;2.88;;;1.00;;
62696;SDS011;48761;42.680;23.312;2022-11-20T04:00:42;3.58;;;1.05;;
62696;SDS011;48761;42.680;23.312;2022-11-20T04:03:08;2.10;;;0.90;;
62696;SDS011;48761;42.680;23.312;2022-11-20T04:05:34;4.18;;;0.80;;
62696;SDS011;48761;42.680;23.312;2022-11-20T04:08:00;1.55;;;0.90;;
62696;SDS011;48761;42.680;23.312;2022-11-20T04:10:32;3.65;;;0.90;;
62696;SDS011;48761;42.680;23.312;2022-11-20T04:12:59;2.60;;;0.82;;
62696;SDS011;48761;42.680;23.312;2022-11-20T04:15:28;3.08;;;0.90;;
62696;SDS011;48761;42.680;23.312;2022-11-20T04:18:16;3.88;;;0.90;;
62696;SDS011;48761;42.680;23.312;2022-11-20T04:20:51;2.30;;;0.88;;
62696;SDS011;48761;42.680;23.312;2022-11-20T04:23:17;3.78;;;1.00;;
62696;SDS011;48761;42.680;23.312;2022-11-20T04:25:52;2.22;;;1.00;;
62696;SDS011;48761;42.680;23.312;2022-11-20T04:28:35;3.35;;;1.00;;
62696;SDS011;48761;42.680;23.312;2022-11-20T04:31:03;0.88;;;0.70;;
62696;SDS011;48761;42.680;23.312;2022-11-20T04:33:49;3.78;;;1.30;;
62696;SDS011;48761;42.680;23.312;2022-11-20T04:36:23;2.70;;;0.80;;
62696;SDS011;48761;42.680;23.312;2022-11-20T04:38:53;3.30;;;0.77;;
62696;SDS011;48761;42.680;23.312;2022-11-20T04:41:21;2.85;;;0.95;;
62696;SDS011;48761;42.680;23.312;2022-11-20T04:43:49;1.83;;;0.90;;
62696;SDS011;48761;42.680;23.312;2022-11-20T04:46:20;2.78;;;1.02;;
62696;SDS011;48761;42.680;23.312;2022-11-20T04:48:46;3.90;;;0.95;;
62696;SDS011;48761;42.680;23.312;2022-11-20T04:51:13;2.15;;;0.70;;
62696;SDS011;48761;42.680;23.312;2022-11-20T04:53:39;1.00;;;0.52;;
62696;SDS011;48761;42.680;23.312;2022-11-20T04:56:06;3.05;;;1.00;;
62696;SDS011;48761;42.680;23.312;2022-11-20T04:58:33;1.92;;;0.70;;
62696;SDS011;48761;42.680;23.312;2022-11-20T05:01:03;2.63;;;0.75;;
62696;SDS011;48761;42.680;23.312;2022-11-20T05:03:34;2.35;;;1.00;;
62696;SDS011;48761;42.680;23.312;2022-11-20T05:06:00;3.38;;;0.75;;
62696;SDS011;48761;42.680;23.312;2022-11-20T05:08:30;2.92;;;0.80;;
62696;SDS011;48761;42.680;23.312;2022-11-20T05:11:07;4.93;;;0.70;;
62696;SDS011;48761;42.680;23.312;2022-11-20T05:13:35;3.38;;;0.75;;
62696;SDS011;48761;42.680;23.312;2022-11-20T05:16:11;3.03;;;0.63;;
62696;SDS011;48761;42.680;23.312;2022-11-20T05:18:42;1.70;;;0.50;;
62696;SDS011;48761;42.680;23.312;2022-11-20T05:21:09;2.53;;;0.70;;
62696;SDS011;48761;42.680;23.312;2022-11-20T05:23:36;1.15;;;0.60;;
62696;SDS011;48761;42.680;23.312;2022-11-20T05:26:03;3.10;;;0.80;;
62696;SDS011;48761;42.680;23.312;2022-11-20T05:28:30;2.33;;;0.60;;
62696;SDS011;48761;42.680;23.312;2022-11-20T05:31:03;2.85;;;0.90;;
62696;SDS011;48761;42.680;23.312;2022-11-20T05:33:50;3.97;;;0.90;;
62696;SDS011;48761;42.680;23.312;2022-11-20T05:36:16;2.83;;;0.77;;
62696;SDS011;48761;42.680;23.312;2022-11-20T05:38:42;2.38;;;0.88;;
62696;SDS011;48761;42.680;23.312;2022-11-20T05:41:19;2.33;;;0.60;;
62696;SDS011;48761;42.680;23.312;2022-11-20T05:43:45;5.47;;;0.80;;
62696;SDS011;48761;42.680;23.312;2022-11-20T05:46:13;5.03;;;0.88;;
62696;SDS011;48761;42.680;23.312;2022-11-20T05:48:41;5.50;;;1.23;;
62696;SDS011;48761;42.680;23.312;2022-11-20T05:51:09;4.22;;;1.10;;
62696;SDS011;48761;42.680;23.312;2022-11-20T05:53:36;4.13;;;1.10;;
62696;SDS011;48761;42.680;23.312;2022-11-20T05:58:32;1.83;;;0.88;;
62696;SDS011;48761;42.680;23.312;2022-11-20T06:03:39;1.63;;;0.90;;
62696;SDS011;48761;42.680;23.312;2022-11-20T06:06:06;4.93;;;1.20;;
62696;SDS011;48761;42.680;23.312;2022-11-20T06:08:32;4.53;;;1.40;;
62696;SDS011;48761;42.680;23.312;2022-11-20T06:10:58;4.95;;;1.08;;
62696;SDS011;48761;42.680;23.312;2022-11-20T06:13:27;3.38;;;1.30;;
62696;SDS011;48761;42.680;23.312;2022-11-20T06:15:53;2.50;;;0.85;;
62696;SDS011;48761;42.680;23.312;2022-11-20T06:18:20;5.28;;;1.30;;
62696;SDS011;48761;42.680;23.312;2022-11-20T06:20:46;4.75;;;1.50;;
62696;SDS011;48761;42.680;23.312;2022-11-20T06:23:12;4.10;;;1.10;;
62696;SDS011;48761;42.680;23.312;2022-11-20T06:25:39;2.53;;;0.85;;
62696;SDS011;48761;42.680;23.312;2022-11-20T06:28:06;5.75;;;1.15;;
62696;SDS011;48761;42.680;23.312;2022-11-20T06:30:32;3.63;;;1.35;;
62696;SDS011;48761;42.680;23.312;2022-11-20T06:32:59;5.72;;;1.30;;
62696;SDS011;48761;42.680;23.312;2022-11-20T06:35:24;3.13;;;1.10;;
62696;SDS011;48761;42.680;23.312;2022-11-20T06:37:50;4.07;;;1.23;;
62696;SDS011;48761;42.680;23.312;2022-11-20T06:40:16;3.63;;;1.15;;
62696;SDS011;48761;42.680;23.312;2022-11-20T06:42:43;5.25;;;0.95;;
62696;SDS011;48761;42.680;23.312;2022-11-20T06:45:09;4.88;;;1.48;;
62696;SDS011;48761;42.680;23.312;2022-11-20T06:47:35;4.18;;;1.60;;
62696;SDS011;48761;42.680;23.312;2022-11-20T06:50:01;4.45;;;1.17;;
62696;SDS011;48761;42.680;23.312;2022-11-20T06:52:26;3.47;;;1.13;;
62696;SDS011;48761;42.680;23.312;2022-11-20T06:54:53;4.03;;;1.00;;
62696;SDS011;48761;42.680;23.312;2022-11-20T06:57:18;4.78;;;1.38;;
62696;SDS011;48761;42.680;23.312;2022-11-20T06:59:44;6.55;;;1.05;;
62696;SDS011;48761;42.680;23.312;2022-11-20T07:02:11;5.30;;;1.23;;
62696;SDS011;48761;42.680;23.312;2022-11-20T07:04:37;3.25;;;1.10;;
62696;SDS011;48761;42.680;23.312;2022-11-20T07:07:04;5.07;;;1.55;;
62696;SDS011;48761;42.680;23.312;2022-11-20T07:09:30;6.20;;;1.10;;
62696;SDS011;48761;42.680;23.312;2022-11-20T07:11:56;5.40;;;1.33;;
62696;SDS011;48761;42.680;23.312;2022-11-20T07:14:22;6.43;;;1.45;;
62696;SDS011;48761;42.680;23.312;2022-11-20T07:16:49;5.25;;;1.30;;
62696;SDS011;48761;42.680;23.312;2022-11-20T07:19:28;4.80;;;1.00;;
62696;SDS011;48761;42.680;23.312;2022-11-20T07:21:55;4.00;;;1.30;;
62696;SDS011;48761;42.680;23.312;2022-11-20T07:24:21;5.50;;;1.30;;
62696;SDS011;48761;42.680;23.312;2022-11-20T07:26:48;4.88;;;1.20;;
62696;SDS011;48761;42.680;23.312;2022-11-20T07:39:37;4.82;;;1.30;;
62696;SDS011;48761;42.680;23.312;2022-11-20T07:53:03;5.78;;;1.50;;
62696;SDS011;48761;42.680;23.312;2022-11-20T07:55:30;8.40;;;2.60;;
62696;SDS011;48761;42.680;23.312;2022-11-20T07:57:56;3.90;;;1.23;;
62696;SDS011;48761;42.680;23.312;2022-11-20T08:00:23;3.55;;;1.10;;
62696;SDS011;48761;42.680;23.312;2022-11-20T08:02:50;8.35;;;1.40;;
62696;SDS011;48761;42.680;23.312;2022-11-20T08:05:16;5.35;;;1.20;;
62696;SDS011;48761;42.680;23.312;2022-11-20T08:07:42;6.40;;;1.40;;
62696;SDS011;48761;42.680;23.312;2022-11-20T08:10:10;3.97;;;1.65;;
62696;SDS011;48761;42.680;23.312;2022-11-20T08:12:47;6.65;;;1.45;;
62696;SDS011;48761;42.680;23.312;2022-11-20T08:15:17;3.38;;;1.50;;
62696;SDS011;48761;42.680;23.312;2022-11-20T08:17:43;7.30;;;1.10;;
62696;SDS011;48761;42.680;23.312;2022-11-20T08:20:09;5.60;;;1.40;;
62696;SDS011;48761;42.680;23.312;2022-11-20T08:22:35;5.65;;;1.63;;
62696;SDS011;48761;42.680;23.312;2022-11-20T08:25:01;4.05;;;2.40;;
62696;SDS011;48761;42.680;23.312;2022-11-20T08:27:27;8.77;;;2.22;;
62696;SDS011;48761;42.680;23.312;2022-11-20T08:29:53;9.10;;;2.33;;
62696;SDS011;48761;42.680;23.312;2022-11-20T08:32:19;4.97;;;2.20;;
62696;SDS011;48761;42.680;23.312;2022-11-20T08:34:45;7.60;;;1.80;;
62696;SDS011;48761;42.680;23.312;2022-11-20T08:37:11;5.05;;;1.83;;
62696;SDS011;48761;42.680;23.312;2022-11-20T08:39:37;3.50;;;1.55;;
62696;SDS011;48761;42.680;23.312;2022-11-20T08:42:06;4.05;;;1.65;;
62696;SDS011;48761;42.680;23.312;2022-11-20T08:44:32;9.52;;;2.22;;
62696;SDS011;48761;42.680;23.312;2022-11-20T08:46:58;9.60;;;2.15;;
62696;SDS011;48761;42.680;23.312;2022-11-20T08:49:26;6.35;;;1.88;;
62696;SDS011;48761;42.680;23.312;2022-11-20T08:51:52;8.77;;;1.75;;
62696;SDS011;48761;42.680;23.312;2022-11-20T08:54:18;3.65;;;1.50;;
62696;SDS011;48761;42.680;23.312;2022-11-20T08:56:47;5.15;;;1.58;;
62696;SDS011;48761;42.680;23.312;2022-11-20T08:59:20;4.43;;;2.03;;
62696;SDS011;48761;42.680;23.312;2022-11-20T09:01:51;12.40;;;2.90;;
62696;SDS011;48761;42.680;23.312;2022-11-20T09:04:17;5.25;;;2.10;;
62696;SDS011;48761;42.680;23.312;2022-11-20T09:06:44;5.60;;;2.70;;
62696;SDS011;48761;42.680;23.312;2022-11-20T09:09:15;6.38;;;2.70;;
62696;SDS011;48761;42.680;23.312;2022-11-20T09:11:42;6.35;;;2.28;;
62696;SDS011;48761;42.680;23.312;2022-11-20T09:14:08;12.20;;;3.13;;
62696;SDS011;48761;42.680;23.312;2022-11-20T09:16:34;10.43;;;3.25;;
62696;SDS011;48761;42.680;23.312;2022-11-20T09:19:01;9.00;;;3.45;;
62696;SDS011;48761;42.680;23.312;2022-11-20T09:21:30;8.32;;;3.70;;
62696;SDS011;48761;42.680;23.312;2022-11-20T09:26:51;12.02;;;4.45;;
62696;SDS011;48761;42.680;23.312;2022-11-20T09:29:17;42.55;;;25.08;;
62696;SDS011;48761;42.680;23.312;2022-11-20T09:31:43;54.55;;;29.75;;
62696;SDS011;48761;42.680;23.312;2022-11-20T09:34:09;107.25;;;62.83;;
62696;SDS011;48761;42.680;23.312;2022-11-20T09:36:35;27.67;;;14.00;;
62696;SDS011;48761;42.680;23.312;2022-11-20T09:39:01;71.47;;;36.97;;
62696;SDS011;48761;42.680;23.312;2022-11-20T09:46:57;18.42;;;10.88;;
62696;SDS011;48761;42.680;23.312;2022-11-20T09:55:07;7.38;;;2.75;;
62696;SDS011;48761;42.680;23.312;2022-11-20T09:57:36;8.63;;;3.60;;
62696;SDS011;48761;42.680;23.312;2022-11-20T10:00:08;36.75;;;20.10;;
62696;SDS011;48761;42.680;23.312;2022-11-20T10:02:41;9.45;;;5.88;;
62696;SDS011;48761;42.680;23.312;2022-11-20T10:05:36;8.20;;;2.83;;
62696;SDS011;48761;42.680;23.312;2022-11-20T10:18:57;9.07;;;2.58;;
62696;SDS011;48761;42.680;23.312;2022-11-20T10:22:09;8.38;;;2.90;;
62696;SDS011;48761;42.680;23.312;2022-11-20T10:27:28;8.55;;;3.22;;
62696;SDS011;48761;42.680;23.312;2022-11-20T10:32:38;8.48;;;3.47;;
62696;SDS011;48761;42.680;23.312;2022-11-20T10:37:59;9.65;;;4.18;;
62696;SDS011;48761;42.680;23.312;2022-11-20T10:40:44;64.68;;;16.30;;
62696;SDS011;48761;42.680;23.312;2022-11-20T10:43:26;24.48;;;6.32;;
62696;SDS011;48761;42.680;23.312;2022-11-20T10:46:05;9.95;;;3.55;;
62696;SDS011;48761;42.680;23.312;2022-11-20T10:48:37;9.88;;;3.75;;
62696;SDS011;48761;42.680;23.312;2022-11-20T10:57:00;15.70;;;3.80;;
62696;SDS011;48761;42.680;23.312;2022-11-20T11:02:41;16.98;;;4.00;;
62696;SDS011;48761;42.680;23.312;2022-11-20T11:07:54;15.80;;;4.07;;
62696;SDS011;48761;42.680;23.312;2022-11-20T11:10:22;8.38;;;2.47;;
62696;SDS011;48761;42.680;23.312;2022-11-20T11:12:53;7.10;;;2.03;;
62696;SDS011;48761;42.680;23.312;2022-11-20T11:17:51;5.35;;;1.90;;
62696;SDS011;48761;42.680;23.312;2022-11-20T11:20:18;6.28;;;1.40;;
62696;SDS011;48761;42.680;23.312;2022-11-20T11:22:53;3.53;;;1.33;;
62696;SDS011;48761;42.680;23.312;2022-11-20T11:25:36;3.03;;;1.05;;
62696;SDS011;48761;42.680;23.312;2022-11-20T11:28:04;8.48;;;1.17;;
62696;SDS011;48761;42.680;23.312;2022-11-20T11:30:50;4.10;;;1.17;;
62696;SDS011;48761;42.680;23.312;2022-11-20T11:33:26;2.88;;;1.00;;
62696;SDS011;48761;42.680;23.312;2022-11-20T11:36:01;3.80;;;0.90;;
62696;SDS011;48761;42.680;23.312;2022-11-20T11:38:36;1.02;;;0.47;;
62696;SDS011;48761;42.680;23.312;2022-11-20T11:41:06;2.22;;;0.63;;
62696;SDS011;48761;42.680;23.312;2022-11-20T11:43:36;4.20;;;1.00;;
62696;SDS011;48761;42.680;23.312;2022-11-20T11:46:03;3.55;;;0.70;;
62696;SDS011;48761;42.680;23.312;2022-11-20T11:48:58;1.92;;;0.80;;
62696;SDS011;48761;42.680;23.312;2022-11-20T11:54:24;4.47;;;1.00;;
62696;SDS011;48761;42.680;23.312;2022-11-20T11:56:55;5.68;;;1.10;;
62696;SDS011;48761;42.680;23.312;2022-11-20T11:59:27;3.72;;;0.95;;
62696;SDS011;48761;42.680;23.312;2022-11-20T12:08:59;7.07;;;1.50;;
62696;SDS011;48761;42.680;23.312;2022-11-20T12:16:13;6.07;;;1.63;;
62696;SDS011;48761;42.680;23.312;2022-11-20T12:18:41;6.15;;;1.10;;
62696;SDS011;48761;42.680;23.312;2022-11-20T12:39:33;1.80;;;0.57;;
62696;SDS011;48761;42.680;23.312;2022-11-20T12:47:42;1.52;;;0.70;;
62696;SDS011;48761;42.680;23.312;2022-11-20T12:50:44;3.60;;;1.20;;
62696;SDS011;48761;42.680;23.312;2022-11-20T12:59:05;6.65;;;2.38;;
62696;SDS011;48761;42.680;23.312;2022-11-20T13:02:05;7.10;;;3.35;;
62696;SDS011;48761;42.680;23.312;2022-11-20T13:05:09;9.00;;;3.67;;
62696;SDS011;48761;42.680;23.312;2022-11-20T13:07:47;7.90;;;3.38;;
62696;SDS011;48761;42.680;23.312;2022-11-20T13:12:57;11.68;;;4.18;;
62696;SDS011;48761;42.680;23.312;2022-11-20T13:18:02;10.13;;;3.95;;
62696;SDS011;48761;42.680;23.312;2022-11-20T13:20:33;7.82;;;3.42;;
62696;SDS011;48761;42.680;23.312;2022-11-20T13:23:01;7.97;;;4.03;;
62696;SDS011;48761;42.680;23.312;2022-11-20T13:25:32;10.80;;;3.60;;
62696;SDS011;48761;42.680;23.312;2022-11-20T13:30:34;9.73;;;3.55;;
62696;SDS011;48761;42.680;23.312;2022-11-20T13:33:04;9.23;;;4.40;;
62696;SDS011;48761;42.680;23.312;2022-11-20T13:35:41;10.00;;;4.57;;
62696;SDS011;48761;42.680;23.312;2022-11-20T13:38:12;15.63;;;6.85;;
62696;SDS011;48761;42.680;23.312;2022-11-20T13:43:28;17.83;;;6.55;;
62696;SDS011;48761;42.680;23.312;2022-11-20T13:46:08;11.10;;;4.68;;
62696;SDS011;48761;42.680;23.312;2022-11-20T13:48:45;10.02;;;5.25;;
62696;SDS011;48761;42.680;23.312;2022-11-20T13:51:20;8.82;;;5.38;;
62696;SDS011;48761;42.680;23.312;2022-11-20T13:59:24;10.45;;;4.85;;
62696;SDS011;48761;42.680;23.312;2022-11-20T14:02:02;12.15;;;4.50;;
62696;SDS011;48761;42.680;23.312;2022-11-20T14:04:35;9.00;;;4.00;;
62696;SDS011;48761;42.680;23.312;2022-11-20T14:07:05;10.23;;;4.68;;
62696;SDS011;48761;42.680;23.312;2022-11-20T14:09:32;10.18;;;4.18;;
62696;SDS011;48761;42.680;23.312;2022-11-20T14:11:59;15.20;;;6.22;;
62696;SDS011;48761;42.680;23.312;2022-11-20T14:14:29;10.43;;;4.50;;
62696;SDS011;48761;42.680;23.312;2022-11-20T14:17:07;10.43;;;5.15;;
62696;SDS011;48761;42.680;23.312;2022-11-20T14:19:53;7.95;;;4.57;;
62696;SDS011;48761;42.680;23.312;2022-11-20T14:22:24;11.43;;;4.53;;
62696;SDS011;48761;42.680;23.312;2022-11-20T14:25:18;9.68;;;4.63;;
62696;SDS011;48761;42.680;23.312;2022-11-20T14:27:48;11.13;;;5.35;;
62696;SDS011;48761;42.680;23.312;2022-11-20T14:30:19;9.88;;;4.95;;
62696;SDS011;48761;42.680;23.312;2022-11-20T14:32:48;14.00;;;5.60;;
62696;SDS011;48761;42.680;23.312;2022-11-20T14:35:19;12.38;;;6.25;;
62696;SDS011;48761;42.680;23.312;2022-11-20T14:37:56;13.10;;;6.25;;
62696;SDS011;48761;42.680;23.312;2022-11-20T14:40:30;10.88;;;5.43;;
62696;SDS011;48761;42.680;23.312;2022-11-20T14:42:58;14.30;;;5.50;;
62696;SDS011;48761;42.680;23.312;2022-11-20T14:45:24;6.72;;;3.72;;
62696;SDS011;48761;42.680;23.312;2022-11-20T14:47:52;8.23;;;3.38;;
62696;SDS011;48761;42.680;23.312;2022-11-20T14:50:25;7.82;;;3.05;;
62696;SDS011;48761;42.680;23.312;2022-11-20T14:52:59;6.65;;;2.90;;
62696;SDS011;48761;42.680;23.312;2022-11-20T14:55:30;5.70;;;2.47;;
62696;SDS011;48761;42.680;23.312;2022-11-20T14:58:04;4.80;;;2.40;;
62696;SDS011;48761;42.680;23.312;2022-11-20T15:01:00;5.75;;;2.28;;
62696;SDS011;48761;42.680;23.312;2022-11-20T15:03:36;7.05;;;2.60;;
62696;SDS011;48761;42.680;23.312;2022-11-20T15:06:04;6.30;;;2.25;;
62696;SDS011;48761;42.680;23.312;2022-11-20T15:08:32;3.50;;;1.98;;
62696;SDS011;48761;42.680;23.312;2022-11-20T15:10:58;5.28;;;2.45;;
62696;SDS011;48761;42.680;23.312;2022-11-20T15:13:31;4.30;;;2.30;;
62696;SDS011;48761;42.680;23.312;2022-11-20T15:16:00;4.15;;;2.20;;
62696;SDS011;48761;42.680;23.312;2022-11-20T15:18:37;3.45;;;2.40;;
62696;SDS011;48761;42.680;23.312;2022-11-20T15:21:10;4.22;;;2.72;;
62696;SDS011;48761;42.680;23.312;2022-11-20T15:23:37;5.70;;;3.15;;
62696;SDS011;48761;42.680;23.312;2022-11-20T15:26:04;8.07;;;3.30;;
62696;SDS011;48761;42.680;23.312;2022-11-20T15:28:49;5.35;;;3.38;;
62696;SDS011;48761;42.680;23.312;2022-11-20T15:31:16;5.28;;;2.95;;
62696;SDS011;48761;42.680;23.312;2022-11-20T15:33:44;8.82;;;2.92;;
62696;SDS011;48761;42.680;23.312;2022-11-20T15:36:10;4.82;;;2.40;;
62696;SDS011;48761;42.680;23.312;2022-11-20T15:38:36;3.88;;;2.30;;
62696;SDS011;48761;42.680;23.312;2022-11-20T15:41:02;4.45;;;1.95;;
62696;SDS011;48761;42.680;23.312;2022-11-20T15:43:32;5.80;;;2.22;;
62696;SDS011;48761;42.680;23.312;2022-11-20T15:45:59;5.28;;;2.53;;
62696;SDS011;48761;42.680;23.312;2022-11-20T15:48:38;10.55;;;3.30;;
62696;SDS011;48761;42.680;23.312;2022-11-20T15:53:35;8.13;;;3.97;;
62696;SDS011;48761;42.680;23.312;2022-11-20T15:56:02;8.55;;;4.30;;
62696;SDS011;48761;42.680;23.312;2022-11-20T15:58:29;8.60;;;3.83;;
62696;SDS011;48761;42.680;23.312;2022-11-20T16:00:54;6.97;;;3.40;;
62696;SDS011;48761;42.680;23.312;2022-11-20T16:03:20;7.28;;;2.63;;
62696;SDS011;48761;42.680;23.312;2022-11-20T16:05:47;5.75;;;2.05;;
62696;SDS011;48761;42.680;23.312;2022-11-20T16:08:13;7.32;;;2.45;;
62696;SDS011;48761;42.680;23.312;2022-11-20T16:10:39;5.97;;;2.20;;
62696;SDS011;48761;42.680;23.312;2022-11-20T16:13:13;10.68;;;2.10;;
62696;SDS011;48761;42.680;23.312;2022-11-20T16:15:40;5.35;;;2.30;;
62696;SDS011;48761;42.680;23.312;2022-11-20T16:18:07;4.53;;;2.13;;
62696;SDS011;48761;42.680;23.312;2022-11-20T16:20:35;3.85;;;1.83;;
62696;SDS011;48761;42.680;23.312;2022-11-20T16:23:01;4.47;;;1.80;;
62696;SDS011;48761;42.680;23.312;2022-11-20T16:25:27;7.57;;;2.20;;
62696;SDS011;48761;42.680;23.312;2022-11-20T16:27:53;4.22;;;2.10;;
62696;SDS011;48761;42.680;23.312;2022-11-20T16:30:19;6.55;;;2.20;;
62696;SDS011;48761;42.680;23.312;2022-11-20T16:32:45;6.50;;;2.40;;
62696;SDS011;48761;42.680;23.312;2022-11-20T16:35:11;9.07;;;2.33;;
62696;SDS011;48761;42.680;23.312;2022-11-20T16:37:37;4.50;;;2.10;;
62696;SDS011;48761;42.680;23.312;2022-11-20T16:40:03;5.13;;;2.05;;
62696;SDS011;48761;42.680;23.312;2022-11-20T16:42:32;4.07;;;2.08;;
62696;SDS011;48761;42.680;23.312;2022-11-20T16:44:59;5.45;;;2.70;;
62696;SDS011;48761;42.680;23.312;2022-11-20T16:47:25;5.32;;;2.10;;
62696;SDS011;48761;42.680;23.312;2022-11-20T16:49:51;10.02;;;2.53;;
62696;SDS011;48761;42.680;23.312;2022-11-20T16:52:17;5.53;;;2.70;;
62696;SDS011;48761;42.680;23.312;2022-11-20T16:54:43;5.15;;;2.60;;
62696;SDS011;48761;42.680;23.312;2022-11-20T16:57:09;10.00;;;3.10;;
62696;SDS011;48761;42.680;23.312;2022-11-20T16:59:34;4.30;;;2.33;;
62696;SDS011;48761;42.680;23.312;2022-11-20T17:02:00;7.88;;;3.30;;
62696;SDS011;48761;42.680;23.312;2022-11-20T17:04:26;5.22;;;2.72;;
62696;SDS011;48761;42.680;23.312;2022-11-20T17:06:52;4.50;;;2.58;;
62696;SDS011;48761;42.680;23.312;2022-11-20T17:09:18;5.60;;;2.65;;
62696;SDS011;48761;42.680;23.312;2022-11-20T17:11:44;6.20;;;2.65;;
62696;SDS011;48761;42.680;23.312;2022-11-20T17:14:10;6.15;;;2.83;;
62696;SDS011;48761;42.680;23.312;2022-11-20T17:16:36;6.18;;;2.50;;
62696;SDS011;48761;42.680;23.312;2022-11-20T17:19:02;4.65;;;2.58;;
62696;SDS011;48761;42.680;23.312;2022-11-20T17:21:29;7.50;;;2.97;;
62696;SDS011;48761;42.680;23.312;2022-11-20T17:23:58;8.02;;;3.13;;
62696;SDS011;48761;42.680;23.312;2022-11-20T17:26:25;5.68;;;3.30;;
62696;SDS011;48761;42.680;23.312;2022-11-20T17:28:58;6.72;;;3.38;;
62696;SDS011;48761;42.680;23.312;2022-11-20T17:31:26;11.00;;;4.20;;